Standale, Michigan
Current Conditions -  °F | °C
As of 10:53 AM on Saturday 25 Oct 2014 (Local Time) from KGRR Reporting Station
Haze Haze  
Wind Chill: 15°   Ceiling: 1000
Heat Index: 15°   Visibility: 5mi
Dew Point: 12°   Wind: 12mph
Humidity: 83%   Direction: 260°W
Pressure: 29.85"   Gusts: NA
Location:  42.9769°N, 85.7689°W
Report Text: KGRR 251453Z 26010KT 5SM HZ BKN010 BKN016 BKN021 15/12 A2985 RMK AO2 SLP109 T01500122 50002
Loading
Personal Weather Stations






























Interactive Weather Map
Tropical Storm Tracking
New forecast layout! Learn more

10-Day Weather Forecast

Advertisements
Track Severe Weather on mobile